sensor_id;sensor_type;location;lat;lon;timestamp;temperature;humidity
52867;DHT22;38739;53.324;6.862;2022-11-06T00:01:12;10.20;99.90
52867;DHT22;38739;53.324;6.862;2022-11-06T00:03:38;10.10;99.90
52867;DHT22;38739;53.324;6.862;2022-11-06T00:06:08;10.10;99.90
52867;DHT22;38739;53.324;6.862;2022-11-06T00:08:54;10.10;99.90
52867;DHT22;38739;53.324;6.862;2022-11-06T00:11:20;10.10;99.90
52867;DHT22;38739;53.324;6.862;2022-11-06T00:13:46;10.10;99.90
52867;DHT22;38739;53.324;6.862;2022-11-06T00:16:13;10.10;99.90
52867;DHT22;38739;53.324;6.862;2022-11-06T00:18:40;10.10;99.90
52867;DHT22;38739;53.324;6.862;2022-11-06T00:23:36;10.00;99.90
52867;DHT22;38739;53.324;6.862;2022-11-06T00:26:10;10.10;99.90
52867;DHT22;38739;53.324;6.862;2022-11-06T00:28:36;10.00;99.90
52867;DHT22;38739;53.324;6.862;2022-11-06T00:31:08;10.00;99.90
52867;DHT22;38739;53.324;6.862;2022-11-06T00:33:34;10.00;99.90
52867;DHT22;38739;53.324;6.862;2022-11-06T00:36:04;10.00;99.90
52867;DHT22;38739;53.324;6.862;2022-11-06T00:38:30;10.00;99.90
52867;DHT22;38739;53.324;6.862;2022-11-06T00:40:56;10.00;99.90
52867;DHT22;38739;53.324;6.862;2022-11-06T00:43:22;9.90;99.90
52867;DHT22;38739;53.324;6.862;2022-11-06T00:45:47;10.00;99.90
52867;DHT22;38739;53.324;6.862;2022-11-06T00:48:13;9.90;99.90
52867;DHT22;38739;53.324;6.862;2022-11-06T00:50:39;9.90;99.90
52867;DHT22;38739;53.324;6.862;2022-11-06T00:53:04;9.90;99.90
52867;DHT22;38739;53.324;6.862;2022-11-06T00:55:30;9.80;99.90
52867;DHT22;38739;53.324;6.862;2022-11-06T00:57:57;9.80;99.90
52867;DHT22;38739;53.324;6.862;2022-11-06T01:00:22;9.80;99.90
52867;DHT22;38739;53.324;6.862;2022-11-06T01:02:48;9.70;99.90
52867;DHT22;38739;53.324;6.862;2022-11-06T01:05:14;9.70;99.90
52867;DHT22;38739;53.324;6.862;2022-11-06T01:07:40;9.70;99.90
52867;DHT22;38739;53.324;6.862;2022-11-06T01:10:06;9.60;99.90
52867;DHT22;38739;53.324;6.862;2022-11-06T01:12:33;9.60;99.90
52867;DHT22;38739;53.324;6.862;2022-11-06T01:15:00;9.60;99.90
52867;DHT22;38739;53.324;6.862;2022-11-06T01:17:26;9.60;99.90
52867;DHT22;38739;53.324;6.862;2022-11-06T01:19:53;9.60;99.90
52867;DHT22;38739;53.324;6.862;2022-11-06T01:22:19;9.60;99.90
52867;DHT22;38739;53.324;6.862;2022-11-06T01:24:44;9.60;99.90
52867;DHT22;38739;53.324;6.862;2022-11-06T01:27:11;9.60;99.90
52867;DHT22;38739;53.324;6.862;2022-11-06T01:29:37;9.60;99.90
52867;DHT22;38739;53.324;6.862;2022-11-06T01:32:04;9.60;99.90
52867;DHT22;38739;53.324;6.862;2022-11-06T01:34:30;9.60;99.90
52867;DHT22;38739;53.324;6.862;2022-11-06T01:36:55;9.50;99.90
52867;DHT22;38739;53.324;6.862;2022-11-06T01:39:21;9.60;99.90
52867;DHT22;38739;53.324;6.862;2022-11-06T01:41:49;9.60;99.90
52867;DHT22;38739;53.324;6.862;2022-11-06T01:47:01;9.50;99.90
52867;DHT22;38739;53.324;6.862;2022-11-06T01:49:31;9.50;99.90
52867;DHT22;38739;53.324;6.862;2022-11-06T01:52:04;9.50;99.90
52867;DHT22;38739;53.324;6.862;2022-11-06T01:54:34;9.60;99.90
52867;DHT22;38739;53.324;6.862;2022-11-06T01:57:02;9.50;99.90
52867;DHT22;38739;53.324;6.862;2022-11-06T01:59:31;9.50;99.90
52867;DHT22;38739;53.324;6.862;2022-11-06T02:01:57;9.50;99.90
52867;DHT22;38739;53.324;6.862;2022-11-06T02:04:30;9.60;99.90
52867;DHT22;38739;53.324;6.862;2022-11-06T02:06:57;9.50;99.90
52867;DHT22;38739;53.324;6.862;2022-11-06T02:09:24;9.50;99.90
52867;DHT22;38739;53.324;6.862;2022-11-06T02:17:51;9.50;99.90
52867;DHT22;38739;53.324;6.862;2022-11-06T02:28:37;9.40;99.90
52867;DHT22;38739;53.324;6.862;2022-11-06T02:31:10;9.40;99.90
52867;DHT22;38739;53.324;6.862;2022-11-06T02:33:43;9.50;99.90
52867;DHT22;38739;53.324;6.862;2022-11-06T02:36:16;9.50;99.90
52867;DHT22;38739;53.324;6.862;2022-11-06T02:38:44;9.50;99.90
52867;DHT22;38739;53.324;6.862;2022-11-06T02:41:15;9.50;99.90
52867;DHT22;38739;53.324;6.862;2022-11-06T02:43:44;9.50;99.90
52867;DHT22;38739;53.324;6.862;2022-11-06T02:46:17;9.50;99.90
52867;DHT22;38739;53.324;6.862;2022-11-06T02:48:56;9.50;99.90
52867;DHT22;38739;53.324;6.862;2022-11-06T02:51:26;9.50;99.90
52867;DHT22;38739;53.324;6.862;2022-11-06T02:53:53;9.50;99.90
52867;DHT22;38739;53.324;6.862;2022-11-06T02:56:23;9.50;99.90
52867;DHT22;38739;53.324;6.862;2022-11-06T02:59:44;9.50;99.90
52867;DHT22;38739;53.324;6.862;2022-11-06T03:01:58;9.50;99.90
52867;DHT22;38739;53.324;6.862;2022-11-06T03:07:17;9.50;99.90
52867;DHT22;38739;53.324;6.862;2022-11-06T03:09:45;9.50;99.90
52867;DHT22;38739;53.324;6.862;2022-11-06T03:15:24;9.40;99.90
52867;DHT22;38739;53.324;6.862;2022-11-06T03:18:52;9.50;99.90
52867;DHT22;38739;53.324;6.862;2022-11-06T03:21:24;9.40;99.90
52867;DHT22;38739;53.324;6.862;2022-11-06T03:24:07;9.40;99.90
52867;DHT22;38739;53.324;6.862;2022-11-06T03:26:42;9.40;99.90
52867;DHT22;38739;53.324;6.862;2022-11-06T03:31:49;9.40;99.90
52867;DHT22;38739;53.324;6.862;2022-11-06T03:34:35;9.40;99.90
52867;DHT22;38739;53.324;6.862;2022-11-06T03:37:12;9.40;99.90
52867;DHT22;38739;53.324;6.862;2022-11-06T03:39:43;9.50;99.90
52867;DHT22;38739;53.324;6.862;2022-11-06T03:42:17;9.40;99.90
52867;DHT22;38739;53.324;6.862;2022-11-06T03:44:51;9.50;99.90
52867;DHT22;38739;53.324;6.862;2022-11-06T03:47:28;9.50;99.90
52867;DHT22;38739;53.324;6.862;2022-11-06T03:50:06;9.50;99.90
52867;DHT22;38739;53.324;6.862;2022-11-06T03:52:42;9.50;99.90
52867;DHT22;38739;53.324;6.862;2022-11-06T03:55:13;9.50;99.90
52867;DHT22;38739;53.324;6.862;2022-11-06T03:57:46;9.50;99.90
52867;DHT22;38739;53.324;6.862;2022-11-06T04:00:13;9.40;99.90
52867;DHT22;38739;53.324;6.862;2022-11-06T04:02:44;9.50;99.90
52867;DHT22;38739;53.324;6.862;2022-11-06T04:05:20;9.50;99.90
52867;DHT22;38739;53.324;6.862;2022-11-06T04:07:50;9.50;99.90
52867;DHT22;38739;53.324;6.862;2022-11-06T04:10:37;9.50;99.90
52867;DHT22;38739;53.324;6.862;2022-11-06T04:13:23;9.50;99.90
52867;DHT22;38739;53.324;6.862;2022-11-06T04:16:10;9.50;99.90
52867;DHT22;38739;53.324;6.862;2022-11-06T04:18:36;9.50;99.90
52867;DHT22;38739;53.324;6.862;2022-11-06T04:38:08;9.50;99.90
52867;DHT22;38739;53.324;6.862;2022-11-06T04:40:57;9.50;99.90
52867;DHT22;38739;53.324;6.862;2022-11-06T04:45:57;9.50;99.90
52867;DHT22;38739;53.324;6.862;2022-11-06T04:48:24;9.50;99.90
52867;DHT22;38739;53.324;6.862;2022-11-06T04:50:53;9.50;99.90
52867;DHT22;38739;53.324;6.862;2022-11-06T04:53:20;9.50;99.90
52867;DHT22;38739;53.324;6.862;2022-11-06T04:55:51;9.50;99.90
52867;DHT22;38739;53.324;6.862;2022-11-06T04:58:18;9.50;99.90
52867;DHT22;38739;53.324;6.862;2022-11-06T05:00:46;9.50;99.90
52867;DHT22;38739;53.324;6.862;2022-11-06T05:03:13;9.50;99.90
52867;DHT22;38739;53.324;6.862;2022-11-06T05:05:39;9.50;99.90
52867;DHT22;38739;53.324;6.862;2022-11-06T05:08:06;9.50;99.90
52867;DHT22;38739;53.324;6.862;2022-11-06T05:10:36;9.50;99.90
52867;DHT22;38739;53.324;6.862;2022-11-06T05:13:02;9.50;99.90
52867;DHT22;38739;53.324;6.862;2022-11-06T05:15:27;9.50;99.90
52867;DHT22;38739;53.324;6.862;2022-11-06T05:17:53;9.50;99.90
52867;DHT22;38739;53.324;6.862;2022-11-06T05:20:19;9.50;99.90
52867;DHT22;38739;53.324;6.862;2022-11-06T05:22:44;9.50;99.90
52867;DHT22;38739;53.324;6.862;2022-11-06T05:25:23;9.50;99.90
52867;DHT22;38739;53.324;6.862;2022-11-06T05:27:49;9.50;99.90
52867;DHT22;38739;53.324;6.862;2022-11-06T05:30:15;9.50;99.90
52867;DHT22;38739;53.324;6.862;2022-11-06T05:32:40;9.50;99.90
52867;DHT22;38739;53.324;6.862;2022-11-06T05:35:07;9.50;99.90
52867;DHT22;38739;53.324;6.862;2022-11-06T05:37:32;9.50;99.90
52867;DHT22;38739;53.324;6.862;2022-11-06T05:39:58;9.50;99.90
52867;DHT22;38739;53.324;6.862;2022-11-06T05:42:24;9.50;99.90
52867;DHT22;38739;53.324;6.862;2022-11-06T05:44:49;9.50;99.90
52867;DHT22;38739;53.324;6.862;2022-11-06T05:47:15;9.50;99.90
52867;DHT22;38739;53.324;6.862;2022-11-06T05:49:41;9.50;99.90
52867;DHT22;38739;53.324;6.862;2022-11-06T05:52:06;9.50;99.90
52867;DHT22;38739;53.324;6.862;2022-11-06T05:54:32;9.40;99.90
52867;DHT22;38739;53.324;6.862;2022-11-06T05:56:58;9.50;99.90
52867;DHT22;38739;53.324;6.862;2022-11-06T05:59:23;9.50;99.90
52867;DHT22;38739;53.324;6.862;2022-11-06T06:01:49;9.50;99.90
52867;DHT22;38739;53.324;6.862;2022-11-06T06:04:15;9.50;99.90
52867;DHT22;38739;53.324;6.862;2022-11-06T06:06:41;9.50;99.90
52867;DHT22;38739;53.324;6.862;2022-11-06T06:09:07;9.50;99.90
52867;DHT22;38739;53.324;6.862;2022-11-06T06:11:33;9.50;99.90
52867;DHT22;38739;53.324;6.862;2022-11-06T06:13:59;9.50;99.90
52867;DHT22;38739;53.324;6.862;2022-11-06T06:16:26;9.50;99.90
52867;DHT22;38739;53.324;6.862;2022-11-06T06:18:52;9.50;99.90
52867;DHT22;38739;53.324;6.862;2022-11-06T06:21:18;9.50;99.90
52867;DHT22;38739;53.324;6.862;2022-11-06T06:23:43;9.50;99.90
52867;DHT22;38739;53.324;6.862;2022-11-06T06:26:09;9.50;99.90
52867;DHT22;38739;53.324;6.862;2022-11-06T06:28:38;9.50;99.90
52867;DHT22;38739;53.324;6.862;2022-11-06T06:31:05;9.50;99.90
52867;DHT22;38739;53.324;6.862;2022-11-06T06:33:31;9.50;99.90
52867;DHT22;38739;53.324;6.862;2022-11-06T06:35:57;9.50;99.90
52867;DHT22;38739;53.324;6.862;2022-11-06T06:38:22;9.50;99.90
52867;DHT22;38739;53.324;6.862;2022-11-06T06:40:48;9.50;99.90
52867;DHT22;38739;53.324;6.862;2022-11-06T06:43:14;9.50;99.90
52867;DHT22;38739;53.324;6.862;2022-11-06T06:45:40;9.50;99.90
52867;DHT22;38739;53.324;6.862;2022-11-06T06:48:06;9.50;99.90
52867;DHT22;38739;53.324;6.862;2022-11-06T06:50:32;9.50;99.90
52867;DHT22;38739;53.324;6.862;2022-11-06T06:52:58;9.50;99.90
52867;DHT22;38739;53.324;6.862;2022-11-06T06:55:24;9.50;99.90
52867;DHT22;38739;53.324;6.862;2022-11-06T06:58:00;9.50;99.90
52867;DHT22;38739;53.324;6.862;2022-11-06T07:00:27;9.50;99.90
52867;DHT22;38739;53.324;6.862;2022-11-06T07:02:53;9.60;99.90
52867;DHT22;38739;53.324;6.862;2022-11-06T07:05:19;9.60;99.90
52867;DHT22;38739;53.324;6.862;2022-11-06T07:07:45;9.60;99.90
52867;DHT22;38739;53.324;6.862;2022-11-06T07:10:11;9.60;99.90
52867;DHT22;38739;53.324;6.862;2022-11-06T07:12:36;9.60;99.90
52867;DHT22;38739;53.324;6.862;2022-11-06T07:15:03;9.60;99.90
52867;DHT22;38739;53.324;6.862;2022-11-06T07:17:28;9.60;99.90
52867;DHT22;38739;53.324;6.862;2022-11-06T07:19:54;9.60;99.90
52867;DHT22;38739;53.324;6.862;2022-11-06T07:22:20;9.70;99.90
52867;DHT22;38739;53.324;6.862;2022-11-06T07:24:45;9.60;99.90
52867;DHT22;38739;53.324;6.862;2022-11-06T07:27:11;9.70;99.90
52867;DHT22;38739;53.324;6.862;2022-11-06T07:29:37;9.70;99.90
52867;DHT22;38739;53.324;6.862;2022-11-06T07:32:02;9.70;99.90
52867;DHT22;38739;53.324;6.862;2022-11-06T07:34:28;9.70;99.90
52867;DHT22;38739;53.324;6.862;2022-11-06T07:36:54;9.70;99.90
52867;DHT22;38739;53.324;6.862;2022-11-06T07:39:19;9.80;99.90
52867;DHT22;38739;53.324;6.862;2022-11-06T07:41:45;9.80;99.90
52867;DHT22;38739;53.324;6.862;2022-11-06T07:44:11;9.80;99.90
52867;DHT22;38739;53.324;6.862;2022-11-06T07:46:36;9.90;99.90
52867;DHT22;38739;53.324;6.862;2022-11-06T07:49:02;9.90;99.90
52867;DHT22;38739;53.324;6.862;2022-11-06T07:51:28;9.90;99.90
52867;DHT22;38739;53.324;6.862;2022-11-06T07:53:53;9.90;99.90
52867;DHT22;38739;53.324;6.862;2022-11-06T07:56:19;10.00;99.90
52867;DHT22;38739;53.324;6.862;2022-11-06T07:58:45;10.00;99.90
52867;DHT22;38739;53.324;6.862;2022-11-06T08:01:14;10.10;99.90
52867;DHT22;38739;53.324;6.862;2022-11-06T08:03:40;10.10;99.90
52867;DHT22;38739;53.324;6.862;2022-11-06T08:06:06;10.10;99.90
52867;DHT22;38739;53.324;6.862;2022-11-06T08:08:32;10.20;99.90
52867;DHT22;38739;53.324;6.862;2022-11-06T08:11:05;10.20;99.90
52867;DHT22;38739;53.324;6.862;2022-11-06T08:13:32;10.20;99.90
52867;DHT22;38739;53.324;6.862;2022-11-06T08:16:07;10.20;99.90
52867;DHT22;38739;53.324;6.862;2022-11-06T08:18:33;10.20;99.90
52867;DHT22;38739;53.324;6.862;2022-11-06T08:20:58;10.20;99.90
52867;DHT22;38739;53.324;6.862;2022-11-06T08:23:24;10.20;99.90
52867;DHT22;38739;53.324;6.862;2022-11-06T08:25:59;10.10;99.90
52867;DHT22;38739;53.324;6.862;2022-11-06T08:28:25;10.10;99.90
52867;DHT22;38739;53.324;6.862;2022-11-06T08:30:51;10.10;99.90
52867;DHT22;38739;53.324;6.862;2022-11-06T08:33:18;10.10;99.90
52867;DHT22;38739;53.324;6.862;2022-11-06T08:35:45;10.00;99.90
52867;DHT22;38739;53.324;6.862;2022-11-06T08:38:11;10.00;99.90
52867;DHT22;38739;53.324;6.862;2022-11-06T08:40:38;10.00;99.90
52867;DHT22;38739;53.324;6.862;2022-11-06T08:43:09;10.00;99.90
52867;DHT22;38739;53.324;6.862;2022-11-06T08:45:36;9.90;99.90
52867;DHT22;38739;53.324;6.862;2022-11-06T08:48:03;9.90;99.90
52867;DHT22;38739;53.324;6.862;2022-11-06T08:50:30;9.90;99.90
52867;DHT22;38739;53.324;6.862;2022-11-06T08:52:57;9.90;99.90
52867;DHT22;38739;53.324;6.862;2022-11-06T08:55:23;9.90;99.90
52867;DHT22;38739;53.324;6.862;2022-11-06T08:57:48;9.90;99.90
52867;DHT22;38739;53.324;6.862;2022-11-06T09:00:14;9.80;99.90
52867;DHT22;38739;53.324;6.862;2022-11-06T09:02:40;9.90;99.90
52867;DHT22;38739;53.324;6.862;2022-11-06T09:05:06;9.90;99.90
52867;DHT22;38739;53.324;6.862;2022-11-06T09:07:33;9.90;99.90
52867;DHT22;38739;53.324;6.862;2022-11-06T09:09:58;9.90;99.90
52867;DHT22;38739;53.324;6.862;2022-11-06T09:12:24;9.90;99.90
52867;DHT22;38739;53.324;6.862;2022-11-06T09:14:50;9.90;99.90
52867;DHT22;38739;53.324;6.862;2022-11-06T09:17:15;10.00;99.90
52867;DHT22;38739;53.324;6.862;2022-11-06T09:19:43;10.00;99.90
52867;DHT22;38739;53.324;6.862;2022-11-06T09:22:09;10.00;99.90
52867;DHT22;38739;53.324;6.862;2022-11-06T09:24:34;10.10;99.90
52867;DHT22;38739;53.324;6.862;2022-11-06T09:27:00;10.10;99.90
52867;DHT22;38739;53.324;6.862;2022-11-06T09:29:26;10.10;99.90
52867;DHT22;38739;53.324;6.862;2022-11-06T09:31:51;10.10;99.90
52867;DHT22;38739;53.324;6.862;2022-11-06T09:34:18;10.20;99.90
52867;DHT22;38739;53.324;6.862;2022-11-06T09:36:44;10.30;99.90
52867;DHT22;38739;53.324;6.862;2022-11-06T09:39:10;10.30;99.90
52867;DHT22;38739;53.324;6.862;2022-11-06T09:41:56;10.40;99.90
52867;DHT22;38739;53.324;6.862;2022-11-06T09:44:51;10.50;99.90
52867;DHT22;38739;53.324;6.862;2022-11-06T09:47:26;10.60;99.90
52867;DHT22;38739;53.324;6.862;2022-11-06T09:49:53;10.60;99.90
52867;DHT22;38739;53.324;6.862;2022-11-06T09:52:37;10.70;99.90
52867;DHT22;38739;53.324;6.862;2022-11-06T09:55:11;10.80;99.90
52867;DHT22;38739;53.324;6.862;2022-11-06T09:58:07;10.70;99.90
52867;DHT22;38739;53.324;6.862;2022-11-06T10:00:29;10.80;99.90
52867;DHT22;38739;53.324;6.862;2022-11-06T10:03:18;10.70;99.90
52867;DHT22;38739;53.324;6.862;2022-11-06T10:05:47;10.70;99.90
52867;DHT22;38739;53.324;6.862;2022-11-06T10:08:25;10.70;99.90
52867;DHT22;38739;53.324;6.862;2022-11-06T10:27:30;10.90;99.90
52867;DHT22;38739;53.324;6.862;2022-11-06T10:30:04;10.90;99.90
52867;DHT22;38739;53.324;6.862;2022-11-06T10:32:55;10.90;99.90
52867;DHT22;38739;53.324;6.862;2022-11-06T10:35:34;10.90;99.90
52867;DHT22;38739;53.324;6.862;2022-11-06T10:40:42;11.00;99.90
52867;DHT22;38739;53.324;6.862;2022-11-06T10:43:31;11.10;99.90
52867;DHT22;38739;53.324;6.862;2022-11-06T10:46:15;11.10;99.90
52867;DHT22;38739;53.324;6.862;2022-11-06T10:48:45;11.10;99.90
52867;DHT22;38739;53.324;6.862;2022-11-06T10:57:45;11.30;99.90
52867;DHT22;38739;53.324;6.862;2022-11-06T11:00:13;11.40;99.90
52867;DHT22;38739;53.324;6.862;2022-11-06T11:02:50;11.50;99.90
52867;DHT22;38739;53.324;6.862;2022-11-06T11:05:19;11.50;99.90
52867;DHT22;38739;53.324;6.862;2022-11-06T11:07:47;11.60;99.90
52867;DHT22;38739;53.324;6.862;2022-11-06T11:12:49;11.60;99.90
52867;DHT22;38739;53.324;6.862;2022-11-06T11:15:46;11.70;99.90
52867;DHT22;38739;53.324;6.862;2022-11-06T11:18:25;11.70;99.90
52867;DHT22;38739;53.324;6.862;2022-11-06T11:21:06;11.70;99.90
52867;DHT22;38739;53.324;6.862;2022-11-06T11:23:32;11.80;99.90
52867;DHT22;38739;53.324;6.862;2022-11-06T11:26:22;11.80;99.90
52867;DHT22;38739;53.324;6.862;2022-11-06T11:28:54;11.80;99.90
52867;DHT22;38739;53.324;6.862;2022-11-06T11:31:29;11.80;99.90
52867;DHT22;38739;53.324;6.862;2022-11-06T11:33:57;11.80;99.90
52867;DHT22;38739;53.324;6.862;2022-11-06T11:36:24;11.90;99.90
52867;DHT22;38739;53.324;6.862;2022-11-06T11:38:50;11.90;99.90
52867;DHT22;38739;53.324;6.862;2022-11-06T11:44:05;11.80;99.90
52867;DHT22;38739;53.324;6.862;2022-11-06T11:46:31;11.70;99.90
52867;DHT22;38739;53.324;6.862;2022-11-06T11:48:58;11.70;99.90
52867;DHT22;38739;53.324;6.862;2022-11-06T11:51:43;11.60;99.90
52867;DHT22;38739;53.324;6.862;2022-11-06T11:56:54;11.60;99.90
52867;DHT22;38739;53.324;6.862;2022-11-06T12:01:54;11.50;99.90
52867;DHT22;38739;53.324;6.862;2022-11-06T12:04:28;11.50;99.90
52867;DHT22;38739;53.324;6.862;2022-11-06T12:07:03;11.50;99.90
52867;DHT22;38739;53.324;6.862;2022-11-06T12:09:33;11.50;99.90
52867;DHT22;38739;53.324;6.862;2022-11-06T12:12:05;11.40;99.90
52867;DHT22;38739;53.324;6.862;2022-11-06T12:14:35;11.40;99.90
52867;DHT22;38739;53.324;6.862;2022-11-06T12:17:10;11.40;99.90
52867;DHT22;38739;53.324;6.862;2022-11-06T12:19:39;11.40;99.90
52867;DHT22;38739;53.324;6.862;2022-11-06T12:22:22;11.40;99.90
52867;DHT22;38739;53.324;6.862;2022-11-06T12:25:14;11.40;99.90
52867;DHT22;38739;53.324;6.862;2022-11-06T12:27:48;11.30;99.90
52867;DHT22;38739;53.324;6.862;2022-11-06T12:30:18;11.40;99.90
52867;DHT22;38739;53.324;6.862;2022-11-06T12:41:05;11.60;99.90
52867;DHT22;38739;53.324;6.862;2022-11-06T12:43:46;11.60;99.90
52867;DHT22;38739;53.324;6.862;2022-11-06T12:54:17;12.00;99.90
52867;DHT22;38739;53.324;6.862;2022-11-06T13:02:27;12.60;99.90
52867;DHT22;38739;53.324;6.862;2022-11-06T13:08:02;12.80;99.90
52867;DHT22;38739;53.324;6.862;2022-11-06T13:18:55;12.80;99.90
52867;DHT22;38739;53.324;6.862;2022-11-06T13:24:47;12.60;99.90
52867;DHT22;38739;53.324;6.862;2022-11-06T13:29:47;12.50;99.90
52867;DHT22;38739;53.324;6.862;2022-11-06T13:32:19;12.40;99.90
52867;DHT22;38739;53.324;6.862;2022-11-06T13:34:49;12.30;99.90
52867;DHT22;38739;53.324;6.862;2022-11-06T13:37:19;12.30;99.90
52867;DHT22;38739;53.324;6.862;2022-11-06T13:39:47;12.20;99.90
52867;DHT22;38739;53.324;6.862;2022-11-06T13:42:25;12.20;99.90
52867;DHT22;38739;53.324;6.862;2022-11-06T13:44:52;12.20;99.90
52867;DHT22;38739;53.324;6.862;2022-11-06T13:50:32;12.10;99.90
52867;DHT22;38739;53.324;6.862;2022-11-06T13:53:04;12.10;99.90
52867;DHT22;38739;53.324;6.862;2022-11-06T13:55:57;12.10;99.90
52867;DHT22;38739;53.324;6.862;2022-11-06T14:06:03;12.00;99.90
52867;DHT22;38739;53.324;6.862;2022-11-06T14:08:43;12.00;99.90
52867;DHT22;38739;53.324;6.862;2022-11-06T14:11:13;12.00;99.90
52867;DHT22;38739;53.324;6.862;2022-11-06T14:13:39;12.00;99.90
52867;DHT22;38739;53.324;6.862;2022-11-06T14:16:28;12.00;99.90
52867;DHT22;38739;53.324;6.862;2022-11-06T14:19:24;11.90;99.90
52867;DHT22;38739;53.324;6.862;2022-11-06T14:21:53;11.90;99.90
52867;DHT22;38739;53.324;6.862;2022-11-06T14:24:38;11.90;99.90
52867;DHT22;38739;53.324;6.862;2022-11-06T14:30:03;11.80;99.90
52867;DHT22;38739;53.324;6.862;2022-11-06T14:32:46;11.80;99.90
52867;DHT22;38739;53.324;6.862;2022-11-06T14:40:54;11.80;99.90
52867;DHT22;38739;53.324;6.862;2022-11-06T14:53:48;11.70;99.90
52867;DHT22;38739;53.324;6.862;2022-11-06T14:56:26;11.70;99.90
52867;DHT22;38739;53.324;6.862;2022-11-06T14:58:55;11.70;99.90
52867;DHT22;38739;53.324;6.862;2022-11-06T15:01:32;11.70;99.90
52867;DHT22;38739;53.324;6.862;2022-11-06T15:04:19;11.60;99.90
52867;DHT22;38739;53.324;6.862;2022-11-06T15:06:47;11.60;99.90
52867;DHT22;38739;53.324;6.862;2022-11-06T15:11:58;11.60;99.90
52867;DHT22;38739;53.324;6.862;2022-11-06T15:17:10;11.60;99.90
52867;DHT22;38739;53.324;6.862;2022-11-06T15:22:14;11.50;99.90
52867;DHT22;38739;53.324;6.862;2022-11-06T15:25:02;11.50;99.90
52867;DHT22;38739;53.324;6.862;2022-11-06T15:27:34;11.50;99.90
52867;DHT22;38739;53.324;6.862;2022-11-06T15:30:03;11.40;99.90
52867;DHT22;38739;53.324;6.862;2022-11-06T15:32:34;11.40;99.90
52867;DHT22;38739;53.324;6.862;2022-11-06T15:35:10;11.30;99.90
52867;DHT22;38739;53.324;6.862;2022-11-06T15:37:42;11.30;99.90
52867;DHT22;38739;53.324;6.862;2022-11-06T15:42:46;11.30;99.90
52867;DHT22;38739;53.324;6.862;2022-11-06T15:47:59;11.20;99.90
52867;DHT22;38739;53.324;6.862;2022-11-06T15:50:29;11.20;99.90
52867;DHT22;38739;53.324;6.862;2022-11-06T15:56:00;11.20;99.90
52867;DHT22;38739;53.324;6.862;2022-11-06T15:58:33;11.10;99.90
52867;DHT22;38739;53.324;6.862;2022-11-06T16:01:01;11.10;99.90
52867;DHT22;38739;53.324;6.862;2022-11-06T16:03:29;11.10;99.90
52867;DHT22;38739;53.324;6.862;2022-11-06T16:05:59;11.10;99.90
52867;DHT22;38739;53.324;6.862;2022-11-06T16:08:28;11.00;99.90
52867;DHT22;38739;53.324;6.862;2022-11-06T16:10:54;11.00;99.90
52867;DHT22;38739;53.324;6.862;2022-11-06T16:13:23;11.00;99.90
52867;DHT22;38739;53.324;6.862;2022-11-06T16:18:20;10.90;99.90
52867;DHT22;38739;53.324;6.862;2022-11-06T16:23:29;10.80;99.90
52867;DHT22;38739;53.324;6.862;2022-11-06T16:26:01;10.70;99.90
52867;DHT22;38739;53.324;6.862;2022-11-06T16:28:30;10.70;99.90
52867;DHT22;38739;53.324;6.862;2022-11-06T16:31:23;10.60;99.90
52867;DHT22;38739;53.324;6.862;2022-11-06T16:33:54;10.60;99.90
52867;DHT22;38739;53.324;6.862;2022-11-06T16:36:20;10.60;99.90
52867;DHT22;38739;53.324;6.862;2022-11-06T16:38:46;10.50;99.90
52867;DHT22;38739;53.324;6.862;2022-11-06T16:41:16;10.50;99.90
52867;DHT22;38739;53.324;6.862;2022-11-06T16:49:34;10.40;99.90
52867;DHT22;38739;53.324;6.862;2022-11-06T16:52:00;10.40;99.90
52867;DHT22;38739;53.324;6.862;2022-11-06T16:54:26;10.30;99.90
52867;DHT22;38739;53.324;6.862;2022-11-06T16:57:26;10.30;99.90
52867;DHT22;38739;53.324;6.862;2022-11-06T16:59:59;10.20;99.90
52867;DHT22;38739;53.324;6.862;2022-11-06T17:02:28;10.20;99.90
52867;DHT22;38739;53.324;6.862;2022-11-06T17:05:12;10.10;99.90
52867;DHT22;38739;53.324;6.862;2022-11-06T17:07:39;10.10;99.90
52867;DHT22;38739;53.324;6.862;2022-11-06T17:13:11;10.00;99.90
52867;DHT22;38739;53.324;6.862;2022-11-06T17:15:38;10.00;99.90
52867;DHT22;38739;53.324;6.862;2022-11-06T17:18:04;9.90;99.90
52867;DHT22;38739;53.324;6.862;2022-11-06T17:20:30;9.90;99.90
52867;DHT22;38739;53.324;6.862;2022-11-06T17:22:56;9.80;99.90
52867;DHT22;38739;53.324;6.862;2022-11-06T17:25:21;9.70;99.90
52867;DHT22;38739;53.324;6.862;2022-11-06T17:27:47;9.70;99.90
52867;DHT22;38739;53.324;6.862;2022-11-06T17:30:14;9.60;99.90
52867;DHT22;38739;53.324;6.862;2022-11-06T17:32:40;9.50;99.90
52867;DHT22;38739;53.324;6.862;2022-11-06T17:35:07;9.30;99.90
52867;DHT22;38739;53.324;6.862;2022-11-06T17:37:34;9.20;99.90
52867;DHT22;38739;53.324;6.862;2022-11-06T17:40:00;9.10;99.90
52867;DHT22;38739;53.324;6.862;2022-11-06T17:42:26;9.00;99.90
52867;DHT22;38739;53.324;6.862;2022-11-06T17:44:51;8.90;99.90
52867;DHT22;38739;53.324;6.862;2022-11-06T17:47:17;8.80;99.90
52867;DHT22;38739;53.324;6.862;2022-11-06T17:49:42;8.80;99.90
52867;DHT22;38739;53.324;6.862;2022-11-06T17:52:08;8.70;99.90
52867;DHT22;38739;53.324;6.862;2022-11-06T17:54:34;8.70;99.90
52867;DHT22;38739;53.324;6.862;2022-11-06T17:57:04;8.70;99.90
52867;DHT22;38739;53.324;6.862;2022-11-06T17:59:30;8.60;99.90
52867;DHT22;38739;53.324;6.862;2022-11-06T18:01:56;8.60;99.90
52867;DHT22;38739;53.324;6.862;2022-11-06T18:04:24;8.60;99.90
52867;DHT22;38739;53.324;6.862;2022-11-06T18:06:51;8.50;99.90
52867;DHT22;38739;53.324;6.862;2022-11-06T18:09:18;8.50;99.90
52867;DHT22;38739;53.324;6.862;2022-11-06T18:11:44;8.50;99.90
52867;DHT22;38739;53.324;6.862;2022-11-06T18:14:11;8.50;99.90
52867;DHT22;38739;53.324;6.862;2022-11-06T18:16:39;8.50;99.90
52867;DHT22;38739;53.324;6.862;2022-11-06T18:19:06;8.50;99.90
52867;DHT22;38739;53.324;6.862;2022-11-06T18:21:32;8.50;99.90
52867;DHT22;38739;53.324;6.862;2022-11-06T18:23:58;8.50;99.90
52867;DHT22;38739;53.324;6.862;2022-11-06T18:26:24;8.40;99.90
52867;DHT22;38739;53.324;6.862;2022-11-06T18:28:50;8.40;99.90
52867;DHT22;38739;53.324;6.862;2022-11-06T18:31:16;8.40;99.90
52867;DHT22;38739;53.324;6.862;2022-11-06T18:33:42;8.40;99.90
52867;DHT22;38739;53.324;6.862;2022-11-06T18:36:10;8.40;99.90
52867;DHT22;38739;53.324;6.862;2022-11-06T18:38:37;8.40;99.90
52867;DHT22;38739;53.324;6.862;2022-11-06T18:41:11;8.40;99.90
52867;DHT22;38739;53.324;6.862;2022-11-06T18:43:38;8.40;99.90
52867;DHT22;38739;53.324;6.862;2022-11-06T18:46:08;8.40;99.90
52867;DHT22;38739;53.324;6.862;2022-11-06T18:48:34;8.40;99.90
52867;DHT22;38739;53.324;6.862;2022-11-06T18:51:14;8.40;99.90
52867;DHT22;38739;53.324;6.862;2022-11-06T18:53:41;8.40;99.90
52867;DHT22;38739;53.324;6.862;2022-11-06T18:56:11;8.40;99.90
52867;DHT22;38739;53.324;6.862;2022-11-06T18:58:38;8.40;99.90
52867;DHT22;38739;53.324;6.862;2022-11-06T19:01:05;8.30;99.90